createdAt,value
2023-09-29T00:02:01.806Z,54.09
2023-09-29T00:04:35.828Z,54.34
2023-09-29T00:07:23.496Z,53.85
2023-09-29T00:09:56.989Z,54.41
2023-09-29T00:12:45.290Z,54.09
2023-09-29T00:15:20.597Z,54.40
2023-09-29T00:18:09.528Z,53.88
2023-09-29T00:20:43.681Z,54.51
2023-09-29T00:23:31.530Z,54.12
2023-09-29T00:26:05.127Z,54.41
2023-09-29T00:28:52.976Z,54.07
2023-09-29T00:31:26.329Z,54.59
2023-09-29T00:34:14.087Z,54.27
2023-09-29T00:36:48.595Z,54.72
2023-09-29T00:39:36.551Z,54.08
2023-09-29T00:42:10.339Z,54.65
2023-09-29T00:44:57.898Z,53.98
2023-09-29T00:47:48.279Z,54.06
2023-09-29T00:50:22.688Z,54.53
2023-09-29T00:53:15.419Z,54.26
2023-09-29T00:55:49.993Z,54.91
2023-09-29T00:58:39.050Z,54.62
2023-09-29T01:01:13.277Z,55.11
2023-09-29T01:04:00.882Z,54.82
2023-09-29T01:06:34.417Z,55.34
2023-09-29T01:12:05.694Z,55.06
2023-09-29T01:14:39.277Z,55.30
2023-09-29T01:17:27.920Z,54.80
2023-09-29T01:20:01.828Z,55.25
2023-09-29T01:22:51.203Z,54.96
2023-09-29T01:25:24.945Z,55.38
2023-09-29T01:28:13.421Z,55.02
2023-09-29T01:30:46.909Z,55.48
2023-09-29T01:33:34.966Z,55.19
2023-09-29T01:36:09.852Z,55.69
2023-09-29T01:38:57.717Z,55.47
2023-09-29T01:41:31.692Z,55.91
2023-09-29T01:44:19.404Z,55.67
2023-09-29T01:46:52.851Z,56.30
2023-09-29T01:49:40.551Z,55.95
2023-09-29T01:52:14.053Z,56.39
2023-09-29T01:54:47.471Z,56.52
2023-09-29T01:57:35.771Z,56.21
2023-09-29T02:00:14.261Z,56.86
2023-09-29T02:03:03.904Z,56.42
2023-09-29T02:05:38.186Z,56.94
2023-09-29T02:08:26.974Z,56.69
2023-09-29T02:11:01.827Z,57.20
2023-09-29T02:13:49.820Z,56.80
2023-09-29T02:16:28.292Z,57.21
2023-09-29T02:19:17.323Z,56.76
2023-09-29T02:22:06.285Z,56.91
2023-09-29T02:24:40.651Z,57.61
2023-09-29T02:27:28.431Z,57.58
2023-09-29T02:30:01.763Z,58.05
2023-09-29T02:32:50.179Z,57.39
2023-09-29T02:35:25.425Z,57.51
2023-09-29T02:38:13.950Z,57.19
2023-09-29T02:41:01.746Z,57.41
2023-09-29T02:43:49.400Z,57.37
2023-09-29T02:46:22.688Z,57.83
2023-09-29T02:49:10.668Z,57.58
2023-09-29T02:51:44.352Z,57.76
2023-09-29T02:54:32.119Z,57.42
2023-09-29T02:57:05.578Z,57.78
2023-09-29T02:59:53.396Z,57.58
2023-09-29T03:02:26.911Z,57.89
2023-09-29T03:05:16.443Z,57.45
2023-09-29T03:07:51.647Z,57.62
2023-09-29T03:10:40.216Z,57.27
2023-09-29T03:13:14.486Z,57.70
2023-09-29T03:16:03.007Z,57.39
2023-09-29T03:18:36.961Z,57.94
2023-09-29T03:21:24.669Z,57.81
2023-09-29T03:23:58.299Z,58.22
2023-09-29T03:26:48.612Z,57.91
2023-09-29T03:29:22.319Z,58.06
2023-09-29T03:32:10.598Z,57.82
2023-09-29T03:34:44.292Z,58.24
2023-09-29T03:37:33.414Z,58.01
2023-09-29T03:40:12.087Z,58.48
2023-09-29T03:43:01.074Z,58.26
2023-09-29T03:45:50.716Z,58.37
2023-09-29T03:48:39.565Z,58.42
2023-09-29T03:51:13.065Z,58.82
2023-09-29T03:54:00.905Z,58.48
2023-09-29T03:56:34.470Z,58.63
2023-09-29T03:59:22.791Z,58.24
2023-09-29T04:01:56.374Z,58.26
2023-09-29T04:04:43.855Z,58.01
2023-09-29T04:07:31.357Z,58.13
2023-09-29T04:10:12.576Z,58.45
2023-09-29T04:13:00.290Z,58.24
2023-09-29T04:15:33.777Z,58.55
2023-09-29T04:18:21.482Z,58.42
2023-09-29T04:21:18.901Z,58.39
2023-09-29T04:24:06.123Z,57.94
2023-09-29T04:26:39.635Z,58.09
2023-09-29T04:29:27.405Z,57.73
2023-09-29T04:32:15.032Z,57.79
2023-09-29T04:35:02.296Z,57.66
2023-09-29T04:37:35.761Z,57.68
2023-09-29T04:40:23.970Z,57.64
2023-09-29T04:43:11.937Z,57.68
2023-09-29T04:45:45.355Z,57.98
2023-09-29T04:48:33.213Z,57.89
2023-09-29T04:51:06.764Z,58.01
2023-09-29T04:53:54.085Z,57.89
2023-09-29T04:56:27.588Z,57.82
2023-09-29T04:59:15.441Z,57.87
2023-09-29T05:01:49.144Z,57.76
2023-09-29T05:04:36.688Z,57.68
2023-09-29T05:07:10.230Z,57.55
2023-09-29T05:09:58.342Z,57.51
2023-09-29T05:12:31.691Z,57.50
2023-09-29T05:15:19.261Z,57.66
2023-09-29T05:17:52.721Z,57.74
2023-09-29T05:20:40.285Z,57.94
2023-09-29T05:23:13.847Z,57.62
2023-09-29T05:26:05.563Z,57.49
2023-09-29T05:28:39.954Z,57.38
2023-09-29T05:31:27.519Z,57.38
2023-09-29T05:34:15.115Z,57.18
2023-09-29T05:36:48.434Z,57.20
2023-09-29T05:39:36.791Z,57.09
2023-09-29T05:42:10.537Z,56.94
2023-09-29T05:44:58.777Z,56.86
2023-09-29T05:47:34.943Z,56.57
2023-09-29T05:50:23.413Z,56.67
2023-09-29T05:53:11.505Z,56.42
2023-09-29T05:55:44.882Z,56.17
2023-09-29T05:58:32.150Z,56.21
2023-09-29T06:01:12.234Z,55.87
2023-09-29T06:04:00.235Z,54.99
2023-09-29T06:06:33.572Z,53.73
2023-09-29T06:09:21.705Z,51.54
2023-09-29T06:12:10.220Z,49.06
2023-09-29T06:14:43.681Z,47.04
2023-09-29T06:17:31.657Z,45.27
2023-09-29T06:20:20.681Z,43.82
2023-09-29T06:22:54.184Z,42.50
2023-09-29T06:25:42.136Z,41.21
2023-09-29T06:28:15.736Z,40.37
2023-09-29T06:31:03.790Z,39.46
2023-09-29T06:33:51.665Z,38.55
2023-09-29T06:36:25.265Z,37.61
2023-09-29T06:39:13.824Z,36.45
2023-09-29T06:42:01.493Z,34.88
2023-09-29T06:44:35.312Z,33.91
2023-09-29T06:47:22.749Z,33.10
2023-09-29T06:49:57.148Z,32.00
2023-09-29T06:52:44.608Z,31.46
2023-09-29T06:55:32.512Z,30.76
2023-09-29T06:58:20.174Z,30.27
2023-09-29T07:00:53.577Z,29.40
2023-09-29T07:03:41.170Z,29.94
2023-09-29T07:06:14.739Z,29.15
2023-09-29T07:09:03.183Z,29.30
2023-09-29T07:11:53.376Z,29.13
2023-09-29T07:14:26.806Z,28.53
2023-09-29T07:17:14.637Z,28.58
2023-09-29T07:19:48.084Z,27.31
2023-09-29T07:22:37.561Z,27.65
2023-09-29T07:25:13.103Z,26.73
2023-09-29T07:28:01.081Z,27.47
2023-09-29T07:30:34.502Z,26.07
2023-09-29T07:33:22.111Z,26.08
2023-09-29T07:35:55.788Z,26.17
2023-09-29T07:38:43.998Z,26.84
2023-09-29T07:41:18.466Z,25.78
2023-09-29T07:44:07.574Z,26.13
2023-09-29T07:46:41.198Z,25.99
2023-09-29T07:49:29.341Z,26.48
2023-09-29T07:52:02.673Z,25.15
2023-09-29T07:54:50.484Z,25.15
2023-09-29T07:57:24.426Z,25.07
2023-09-29T08:00:15.234Z,25.19
2023-09-29T08:03:02.965Z,25.88
2023-09-29T08:05:36.770Z,25.42
2023-09-29T08:08:25.655Z,24.85
2023-09-29T08:11:13.217Z,24.69
2023-09-29T08:13:48.018Z,24.66
2023-09-29T08:16:36.311Z,25.25
2023-09-29T08:19:09.943Z,24.95
2023-09-29T08:21:57.555Z,25.85
2023-09-29T08:24:45.016Z,26.29
2023-09-29T08:27:18.511Z,25.44
2023-09-29T08:30:12.279Z,25.36
2023-09-29T08:33:14.644Z,25.65
2023-09-29T08:35:34.927Z,26.01
2023-09-29T08:38:23.818Z,26.20
2023-09-29T08:40:59.608Z,25.81
2023-09-29T08:44:04.041Z,25.43
2023-09-29T08:46:41.442Z,25.97
2023-09-29T08:49:17.205Z,26.18
2023-09-29T08:52:07.081Z,25.91
2023-09-29T08:54:41.209Z,26.43
2023-09-29T08:57:30.007Z,26.85
2023-09-29T09:00:05.644Z,25.89
2023-09-29T09:02:53.557Z,25.56
2023-09-29T09:05:27.301Z,24.50
2023-09-29T09:08:15.199Z,23.90
2023-09-29T09:11:03.816Z,23.58
2023-09-29T09:13:37.529Z,22.94
2023-09-29T09:16:25.716Z,23.17
2023-09-29T09:19:00.733Z,23.31
2023-09-29T09:21:48.504Z,23.97
2023-09-29T09:24:35.791Z,23.82
2023-09-29T09:27:10.138Z,24.02
2023-09-29T09:29:58.721Z,24.38
2023-09-29T09:32:35.782Z,24.70
2023-09-29T09:35:30.888Z,24.69
2023-09-29T09:38:05.794Z,24.65
2023-09-29T09:40:59.301Z,24.84
2023-09-29T09:43:34.396Z,24.06
2023-09-29T09:46:23.083Z,24.54
2023-09-29T09:49:01.503Z,24.43
2023-09-29T09:51:50.953Z,24.79
2023-09-29T09:54:27.257Z,25.12
2023-09-29T09:57:18.635Z,24.93
2023-09-29T09:59:55.822Z,24.19
2023-09-29T10:02:45.886Z,24.22
2023-09-29T10:05:23.558Z,23.90
2023-09-29T10:08:14.128Z,23.45
2023-09-29T10:11:12.772Z,23.71
2023-09-29T10:13:51.293Z,24.12
2023-09-29T10:16:40.427Z,23.89
2023-09-29T10:19:38.807Z,22.96
2023-09-29T10:22:12.656Z,22.61
2023-09-29T10:25:01.069Z,22.30
2023-09-29T10:27:36.147Z,21.72
2023-09-29T10:30:27.640Z,22.28
2023-09-29T10:33:08.708Z,21.37
2023-09-29T10:35:56.369Z,22.27
2023-09-29T10:38:31.204Z,20.97
2023-09-29T10:41:34.446Z,22.14
2023-09-29T10:43:56.854Z,22.17
2023-09-29T10:46:52.343Z,22.05
2023-09-29T10:49:36.569Z,21.94
2023-09-29T10:52:24.565Z,22.54
2023-09-29T10:55:00.315Z,21.64
2023-09-29T10:57:51.152Z,21.67
2023-09-29T11:00:23.461Z,20.91
2023-09-29T11:02:57.296Z,22.00
2023-09-29T11:05:56.145Z,21.41
2023-09-29T11:08:34.352Z,21.25
2023-09-29T11:11:22.269Z,22.01
2023-09-29T11:14:10.284Z,21.92
2023-09-29T11:16:43.938Z,21.28
2023-09-29T11:19:32.763Z,21.61
2023-09-29T11:22:07.214Z,21.88
2023-09-29T11:24:55.591Z,22.02
2023-09-29T11:27:34.909Z,21.78
2023-09-29T11:30:24.525Z,21.66
2023-09-29T11:32:58.468Z,21.57
2023-09-29T11:38:36.823Z,21.82
2023-09-29T11:41:10.082Z,21.59
2023-09-29T11:43:57.908Z,21.59
2023-09-29T11:46:31.248Z,21.91
2023-09-29T11:49:18.819Z,22.45
2023-09-29T11:51:54.780Z,21.96
2023-09-29T11:54:42.434Z,21.98
2023-09-29T11:57:15.845Z,22.21
2023-09-29T12:00:03.684Z,22.39
2023-09-29T12:02:52.740Z,22.90
2023-09-29T12:05:41.252Z,23.49
2023-09-29T12:08:14.893Z,23.88
2023-09-29T12:11:02.571Z,24.47
2023-09-29T12:13:50.470Z,24.87
2023-09-29T12:16:24.056Z,25.00
2023-09-29T12:18:58.221Z,24.31
2023-09-29T12:21:45.632Z,23.35
2023-09-29T12:24:19.300Z,22.88
2023-09-29T12:27:07.325Z,22.62
2023-09-29T12:29:41.105Z,22.50
2023-09-29T12:32:28.479Z,22.23
2023-09-29T12:35:16.289Z,22.88
2023-09-29T12:37:50.058Z,23.41
2023-09-29T12:40:39.219Z,24.08
2023-09-29T12:43:12.471Z,24.24
2023-09-29T12:45:59.922Z,24.15
2023-09-29T12:48:33.578Z,23.75
2023-09-29T12:51:28.002Z,24.77
2023-09-29T12:53:57.914Z,25.11
2023-09-29T12:56:59.545Z,25.04
2023-09-29T12:59:37.570Z,24.77
2023-09-29T13:02:12.322Z,24.67
2023-09-29T13:05:00.342Z,25.06
2023-09-29T13:07:34.883Z,25.89
2023-09-29T13:10:23.403Z,26.50
2023-09-29T13:12:56.905Z,27.01
2023-09-29T13:15:44.799Z,27.68
2023-09-29T13:18:18.117Z,27.65
2023-09-29T13:21:06.090Z,27.27
2023-09-29T13:23:39.456Z,26.79
2023-09-29T13:26:27.149Z,26.66
2023-09-29T13:29:00.375Z,26.69
2023-09-29T13:31:48.127Z,26.96
2023-09-29T13:34:36.339Z,27.25
2023-09-29T13:37:09.793Z,27.56
2023-09-29T13:39:58.462Z,28.21
2023-09-29T13:42:31.837Z,28.74
2023-09-29T13:45:19.880Z,29.05
2023-09-29T13:47:53.607Z,29.27
2023-09-29T13:50:47.333Z,29.49
2023-09-29T13:53:20.961Z,29.92
2023-09-29T13:56:09.675Z,30.19
2023-09-29T13:58:43.700Z,30.22
2023-09-29T14:01:19.336Z,30.63
2023-09-29T14:04:08.410Z,30.72
2023-09-29T14:06:56.720Z,31.05
2023-09-29T14:09:30.240Z,31.31
2023-09-29T14:12:17.838Z,31.33
2023-09-29T14:14:51.085Z,31.62
2023-09-29T14:17:38.697Z,31.56
2023-09-29T14:20:14.803Z,31.77
2023-09-29T14:23:03.379Z,31.73
2023-09-29T14:25:37.311Z,32.01
2023-09-29T14:28:25.466Z,31.89
2023-09-29T14:31:14.374Z,32.09
2023-09-29T14:33:47.568Z,32.50
2023-09-29T14:36:35.149Z,32.38
2023-09-29T14:39:22.887Z,32.53
2023-09-29T14:41:56.312Z,32.92
2023-09-29T14:44:44.220Z,32.85
2023-09-29T14:47:17.975Z,33.30
2023-09-29T14:50:07.862Z,33.12
2023-09-29T14:52:55.512Z,33.21
2023-09-29T14:55:29.599Z,33.70
2023-09-29T14:58:17.779Z,33.57
2023-09-29T15:00:50.953Z,34.06
2023-09-29T15:03:39.039Z,33.96
2023-09-29T15:06:15.326Z,34.63
2023-09-29T15:09:02.686Z,34.38
2023-09-29T15:11:36.651Z,35.01
2023-09-29T15:14:25.771Z,34.84
2023-09-29T15:16:59.419Z,35.44
2023-09-29T15:19:47.146Z,35.22
2023-09-29T15:22:22.540Z,35.80
2023-09-29T15:25:11.910Z,35.46
2023-09-29T15:27:45.509Z,36.15
2023-09-29T15:30:32.894Z,35.79
2023-09-29T15:33:06.710Z,36.39
2023-09-29T15:35:56.571Z,35.89
2023-09-29T15:38:29.919Z,36.74
2023-09-29T15:41:17.548Z,36.36
2023-09-29T15:44:05.455Z,36.38
2023-09-29T15:46:39.008Z,37.04
2023-09-29T15:49:26.671Z,36.65
2023-09-29T15:52:00.151Z,37.33
2023-09-29T15:54:47.569Z,36.85
2023-09-29T15:57:35.904Z,36.89
2023-09-29T16:00:14.295Z,37.77
2023-09-29T16:03:02.206Z,37.09
2023-09-29T16:05:36.103Z,38.01
2023-09-29T16:08:23.977Z,37.57
2023-09-29T16:10:58.498Z,38.49
2023-09-29T16:13:46.837Z,37.98
2023-09-29T16:16:20.520Z,38.94
2023-09-29T16:19:08.326Z,38.25
2023-09-29T16:21:41.734Z,39.11
2023-09-29T16:24:30.138Z,38.61
2023-09-29T16:27:05.492Z,39.57
2023-09-29T16:29:53.118Z,38.96
2023-09-29T16:32:32.453Z,39.93
2023-09-29T16:35:21.466Z,39.24
2023-09-29T16:37:51.754Z,40.28
2023-09-29T16:40:40.272Z,39.71
2023-09-29T16:43:14.206Z,40.39
2023-09-29T16:46:02.069Z,39.79
2023-09-29T16:48:35.348Z,41.10
2023-09-29T16:51:25.055Z,40.44
2023-09-29T16:53:59.244Z,41.09
2023-09-29T16:56:46.997Z,40.49
2023-09-29T16:59:20.553Z,41.33
2023-09-29T17:02:08.347Z,40.84
2023-09-29T17:04:56.284Z,40.91
2023-09-29T17:07:29.891Z,41.77
2023-09-29T17:10:17.792Z,41.20
2023-09-29T17:12:52.687Z,41.85
2023-09-29T17:15:43.107Z,41.25
2023-09-29T17:18:17.223Z,42.22
2023-09-29T17:21:05.153Z,41.61
2023-09-29T17:23:52.804Z,41.64
2023-09-29T17:26:26.327Z,42.40
2023-09-29T17:29:14.297Z,41.74
2023-09-29T17:31:48.736Z,42.74
2023-09-29T17:34:37.853Z,42.11
2023-09-29T17:37:25.476Z,42.44
2023-09-29T17:39:59.832Z,43.27
2023-09-29T17:42:53.548Z,42.49
2023-09-29T17:45:27.702Z,43.57
2023-09-29T17:48:29.791Z,42.98
2023-09-29T17:50:50.729Z,43.85
2023-09-29T17:53:40.153Z,43.20
2023-09-29T17:56:14.075Z,44.00
2023-09-29T17:59:02.257Z,43.31
2023-09-29T18:01:35.981Z,44.32
2023-09-29T18:04:24.600Z,43.60
2023-09-29T18:07:00.252Z,44.53
2023-09-29T18:09:48.217Z,43.74
2023-09-29T18:12:22.254Z,44.94
2023-09-29T18:15:13.042Z,44.37
2023-09-29T18:17:46.875Z,45.30
2023-09-29T18:20:35.069Z,44.57
2023-09-29T18:23:09.084Z,45.27
2023-09-29T18:25:56.738Z,44.96
2023-09-29T18:28:31.876Z,45.83
2023-09-29T18:31:19.785Z,45.20
2023-09-29T18:33:54.068Z,45.92
2023-09-29T18:36:41.569Z,45.66
2023-09-29T18:39:17.453Z,46.24
2023-09-29T18:42:07.280Z,45.52
2023-09-29T18:44:40.435Z,46.49
2023-09-29T18:47:28.756Z,45.65
2023-09-29T18:50:02.868Z,46.54
2023-09-29T18:52:50.607Z,45.86
2023-09-29T18:55:39.802Z,45.92
2023-09-29T18:58:27.482Z,46.25
2023-09-29T19:01:01.006Z,46.89
2023-09-29T19:03:48.529Z,46.64
2023-09-29T19:06:37.517Z,46.66
2023-09-29T19:09:11.760Z,47.36
2023-09-29T19:12:01.226Z,46.63
2023-09-29T19:14:34.858Z,47.39
2023-09-29T19:17:24.020Z,46.73
2023-09-29T19:20:13.012Z,46.82
2023-09-29T19:22:46.444Z,47.63
2023-09-29T19:25:19.954Z,47.84
2023-09-29T19:28:10.185Z,47.36
2023-09-29T19:30:58.802Z,47.23
2023-09-29T19:33:32.153Z,48.25
2023-09-29T19:36:19.981Z,47.54
2023-09-29T19:38:53.653Z,48.16
2023-09-29T19:41:41.306Z,47.65
2023-09-29T19:44:14.836Z,48.24
2023-09-29T19:47:02.369Z,47.57
2023-09-29T19:49:51.160Z,47.54
2023-09-29T19:52:24.512Z,48.04
2023-09-29T19:55:17.216Z,47.45
2023-09-29T19:57:51.892Z,47.89
2023-09-29T20:00:39.324Z,47.42
2023-09-29T20:03:14.520Z,47.97
2023-09-29T20:06:03.046Z,47.47
2023-09-29T20:08:51.627Z,47.45
2023-09-29T20:11:26.290Z,47.99
2023-09-29T20:14:14.711Z,47.50
2023-09-29T20:16:48.322Z,48.13
2023-09-29T20:19:36.658Z,47.67
2023-09-29T20:22:10.917Z,48.24
2023-09-29T20:25:01.895Z,47.74
2023-09-29T20:27:35.674Z,48.42
2023-09-29T20:30:23.694Z,47.90
2023-09-29T20:32:58.300Z,48.56
2023-09-29T20:35:46.250Z,48.21
2023-09-29T20:38:34.639Z,48.31
2023-09-29T20:41:22.866Z,48.36
2023-09-29T20:43:57.312Z,49.07
2023-09-29T20:46:46.377Z,48.64
2023-09-29T20:49:20.625Z,49.21
2023-09-29T20:51:54.233Z,49.32
2023-09-29T20:54:42.173Z,48.94
2023-09-29T20:57:16.038Z,49.56
2023-09-29T21:00:03.944Z,49.13
2023-09-29T21:02:37.925Z,49.78
2023-09-29T21:05:26.218Z,49.35
2023-09-29T21:08:00.342Z,49.84
2023-09-29T21:10:48.128Z,49.58
2023-09-29T21:13:21.729Z,50.29
2023-09-29T21:16:12.162Z,49.74
2023-09-29T21:18:45.948Z,50.37
2023-09-29T21:21:33.618Z,50.06
2023-09-29T21:24:21.663Z,50.17
2023-09-29T21:26:55.054Z,50.79
2023-09-29T21:29:42.634Z,50.37
2023-09-29T21:32:15.871Z,50.99
2023-09-29T21:35:03.420Z,50.73
2023-09-29T21:37:36.946Z,51.40
2023-09-29T21:40:24.733Z,51.17
2023-09-29T21:43:12.371Z,51.05
2023-09-29T21:46:00.016Z,51.09
2023-09-29T21:48:47.755Z,51.03
2023-09-29T21:51:21.508Z,51.73
2023-09-29T21:54:11.096Z,51.61
2023-09-29T21:56:58.760Z,51.36
2023-09-29T21:59:32.249Z,51.80
2023-09-29T22:02:20.094Z,51.29
2023-09-29T22:05:10.609Z,51.26
2023-09-29T22:07:44.502Z,51.82
2023-09-29T22:10:33.150Z,51.38
2023-09-29T22:13:07.247Z,51.96
2023-09-29T22:15:56.375Z,51.57
2023-09-29T22:18:29.852Z,52.34
2023-09-29T22:21:19.594Z,51.74
2023-09-29T22:23:53.750Z,52.39
2023-09-29T22:26:41.571Z,52.22
2023-09-29T22:29:14.830Z,52.91
2023-09-29T22:32:03.704Z,52.33
2023-09-29T22:34:53.323Z,52.54
2023-09-29T22:37:26.866Z,52.89
2023-09-29T22:40:16.482Z,52.49
2023-09-29T22:42:50.487Z,52.88
2023-09-29T22:45:23.985Z,53.02
2023-09-29T22:48:11.734Z,52.63
2023-09-29T22:50:45.526Z,53.03
2023-09-29T22:53:33.069Z,52.69
2023-09-29T22:56:13.366Z,53.33
2023-09-29T22:59:00.909Z,52.55
2023-09-29T23:01:35.079Z,53.03
2023-09-29T23:04:22.708Z,52.92
2023-09-29T23:06:55.853Z,53.49
2023-09-29T23:09:43.540Z,53.36
2023-09-29T23:12:31.444Z,53.53
2023-09-29T23:15:06.313Z,53.85
2023-09-29T23:17:55.618Z,53.65
2023-09-29T23:20:43.388Z,53.57
2023-09-29T23:23:32.537Z,53.91
2023-09-29T23:26:22.256Z,53.59
2023-09-29T23:29:09.885Z,53.50
2023-09-29T23:31:43.901Z,53.71
2023-09-29T23:34:31.523Z,53.50
2023-09-29T23:37:19.248Z,53.74
2023-09-29T23:40:08.015Z,53.88
2023-09-29T23:42:42.501Z,54.39
2023-09-29T23:45:30.321Z,53.95
2023-09-29T23:48:04.051Z,54.35
2023-09-29T23:50:51.616Z,53.80
2023-09-29T23:53:26.735Z,54.21
2023-09-29T23:56:14.370Z,53.85
2023-09-29T23:59:02.490Z,53.95
